Weather at McAlister Airpark

Public forecast

Using degrees Fahrenheit for public forecast. Weather courtesy of forecast.io.

Closest aviation weather report (METAR) to McAlister Airpark

Closest report is Boone County Airport, 22.7 nm (42.1 km) ENE. Retrieved 2022/05/22 23:53 UTC (19 minutes ago):

KHRO 222353Z AUTO 04006KT 10SM OVC055 14/07 A3026 RMK AO2 SLP244 T01440072 10150 20133 58012

Closest aviation forecast (TAF) to McAlister Airpark

Closest forecast is Boone County Airport, 22.7 nm (42.1 km) ENE. Retrieved 2022-05-23 00:36 UTC (0 seconds ago):

TAF KHRO 222334Z 2300/2324 04008KT P6SM OVC050 FM230600 05006KT P6SM SCT050 BKN100 FM231800 10008KT P6SM BKN050